sensor_id;sensor_type;location;lat;lon;timestamp;pressure;altitude;pressure_sealevel;temperature;humidity
38466;BME280;24244;51.950;5.902;2023-09-19T00:00:44;100592.38;;;16.84;82.42
38466;BME280;24244;51.950;5.902;2023-09-19T00:03:15;100586.22;;;16.83;82.16
38466;BME280;24244;51.950;5.902;2023-09-19T00:05:43;100596.97;;;16.83;82.30
38466;BME280;24244;51.950;5.902;2023-09-19T00:08:13;100601.53;;;16.83;82.52
38466;BME280;24244;51.950;5.902;2023-09-19T00:10:41;100602.56;;;16.82;82.46
38466;BME280;24244;51.950;5.902;2023-09-19T00:13:09;100616.81;;;16.82;82.63
38466;BME280;24244;51.950;5.902;2023-09-19T00:15:44;100614.69;;;16.84;82.56
38466;BME280;24244;51.950;5.902;2023-09-19T00:18:19;100621.91;;;16.84;82.70
38466;BME280;24244;51.950;5.902;2023-09-19T00:20:51;100621.91;;;16.84;82.78
38466;BME280;24244;51.950;5.902;2023-09-19T00:23:19;100625.41;;;16.84;82.83
38466;BME280;24244;51.950;5.902;2023-09-19T00:25:47;100622.75;;;16.84;83.09
38466;BME280;24244;51.950;5.902;2023-09-19T00:28:14;100639.09;;;16.83;83.17
38466;BME280;24244;51.950;5.902;2023-09-19T00:30:42;100632.91;;;16.82;83.25
38466;BME280;24244;51.950;5.902;2023-09-19T00:33:09;100630.44;;;16.81;83.28
38466;BME280;24244;51.950;5.902;2023-09-19T00:35:47;100634.19;;;16.80;83.44
38466;BME280;24244;51.950;5.902;2023-09-19T00:38:14;100636.63;;;16.81;83.70
38466;BME280;24244;51.950;5.902;2023-09-19T00:40:44;100635.00;;;16.80;83.43
38466;BME280;24244;51.950;5.902;2023-09-19T00:43:10;100651.09;;;16.80;83.63
38466;BME280;24244;51.950;5.902;2023-09-19T00:45:39;100643.06;;;16.80;83.48
38466;BME280;24244;51.950;5.902;2023-09-19T00:48:09;100646.56;;;16.81;83.63
38466;BME280;24244;51.950;5.902;2023-09-19T00:50:39;100647.59;;;16.80;83.54
38466;BME280;24244;51.950;5.902;2023-09-19T00:53:09;100648.66;;;16.79;83.60
38466;BME280;24244;51.950;5.902;2023-09-19T00:55:37;100655.88;;;16.78;83.83
38466;BME280;24244;51.950;5.902;2023-09-19T00:58:04;100653.19;;;16.78;83.71
38466;BME280;24244;51.950;5.902;2023-09-19T01:00:34;100659.59;;;16.77;83.79
38466;BME280;24244;51.950;5.902;2023-09-19T01:03:02;100659.84;;;16.76;83.87
38466;BME280;24244;51.950;5.902;2023-09-19T01:05:29;100662.53;;;16.76;83.83
38466;BME280;24244;51.950;5.902;2023-09-19T01:07:57;100660.06;;;16.74;83.99
38466;BME280;24244;51.950;5.902;2023-09-19T01:10:25;100664.63;;;16.74;83.89
38466;BME280;24244;51.950;5.902;2023-09-19T01:12:55;100663.00;;;16.73;84.02
38466;BME280;24244;51.950;5.902;2023-09-19T01:15:36;100668.56;;;16.71;84.15
38466;BME280;24244;51.950;5.902;2023-09-19T01:18:21;100656.19;;;16.70;84.14
38466;BME280;24244;51.950;5.902;2023-09-19T01:20:57;100663.44;;;16.70;84.06
38466;BME280;24244;51.950;5.902;2023-09-19T01:23:39;100663.44;;;16.70;84.12
38466;BME280;24244;51.950;5.902;2023-09-19T01:26:19;100661.00;;;16.68;84.23
38466;BME280;24244;51.950;5.902;2023-09-19T01:29:06;100667.63;;;16.66;84.28
38466;BME280;24244;51.950;5.902;2023-09-19T01:31:42;100665.78;;;16.66;84.30
38466;BME280;24244;51.950;5.902;2023-09-19T01:34:10;100667.63;;;16.66;84.20
38466;BME280;24244;51.950;5.902;2023-09-19T01:36:38;100669.72;;;16.64;84.27
38466;BME280;24244;51.950;5.902;2023-09-19T01:39:07;100667.28;;;16.62;84.08
38466;BME280;24244;51.950;5.902;2023-09-19T01:41:54;100676.38;;;16.61;84.16
38466;BME280;24244;51.950;5.902;2023-09-19T01:44:25;100689.16;;;16.59;84.04
38466;BME280;24244;51.950;5.902;2023-09-19T01:46:58;100678.66;;;16.58;83.97
38466;BME280;24244;51.950;5.902;2023-09-19T01:49:33;100683.41;;;16.56;84.03
38466;BME280;24244;51.950;5.902;2023-09-19T01:52:10;100684.72;;;16.53;83.94
38466;BME280;24244;51.950;5.902;2023-09-19T01:54:45;100683.88;;;16.53;83.87
38466;BME280;24244;51.950;5.902;2023-09-19T01:57:17;100699.16;;;16.52;83.69
38466;BME280;24244;51.950;5.902;2023-09-19T01:59:50;100703.94;;;16.50;83.82
38466;BME280;24244;51.950;5.902;2023-09-19T02:02:21;100696.34;;;16.47;83.76
38466;BME280;24244;51.950;5.902;2023-09-19T02:04:49;100699.84;;;16.48;83.53
38466;BME280;24244;51.950;5.902;2023-09-19T02:07:17;100698.44;;;16.45;83.81
38466;BME280;24244;51.950;5.902;2023-09-19T02:09:44;100681.94;;;16.41;83.75
38466;BME280;24244;51.950;5.902;2023-09-19T02:12:11;100691.91;;;16.41;83.59
38466;BME280;24244;51.950;5.902;2023-09-19T02:14:37;100697.47;;;16.39;83.39
38466;BME280;24244;51.950;5.902;2023-09-19T02:17:04;100702.25;;;16.37;83.59
38466;BME280;24244;51.950;5.902;2023-09-19T02:19:39;100701.63;;;16.35;83.49
38466;BME280;24244;51.950;5.902;2023-09-19T02:22:07;100701.88;;;16.34;83.29
38466;BME280;24244;51.950;5.902;2023-09-19T02:24:37;100704.56;;;16.34;83.39
38466;BME280;24244;51.950;5.902;2023-09-19T02:27:05;100703.75;;;16.33;83.24
38466;BME280;24244;51.950;5.902;2023-09-19T02:29:32;100693.25;;;16.32;82.82
38466;BME280;24244;51.950;5.902;2023-09-19T02:32:01;100698.59;;;16.32;83.22
38466;BME280;24244;51.950;5.902;2023-09-19T02:34:28;100694.50;;;16.29;82.96
38466;BME280;24244;51.950;5.902;2023-09-19T02:36:57;100708.13;;;16.28;82.87
38466;BME280;24244;51.950;5.902;2023-09-19T02:39:23;100694.59;;;16.23;82.91
38466;BME280;24244;51.950;5.902;2023-09-19T02:41:50;100708.22;;;16.21;83.06
38466;BME280;24244;51.950;5.902;2023-09-19T02:44:17;100707.84;;;16.18;82.82
38466;BME280;24244;51.950;5.902;2023-09-19T02:46:46;100720.44;;;16.17;82.91
38466;BME280;24244;51.950;5.902;2023-09-19T02:49:13;100713.06;;;16.13;82.86
38466;BME280;24244;51.950;5.902;2023-09-19T02:51:40;100711.66;;;16.10;82.60
38466;BME280;24244;51.950;5.902;2023-09-19T02:54:08;100712.91;;;16.08;82.81
38466;BME280;24244;51.950;5.902;2023-09-19T02:56:35;100720.94;;;16.08;82.47
38466;BME280;24244;51.950;5.902;2023-09-19T02:59:02;100717.69;;;16.05;82.53
38466;BME280;24244;51.950;5.902;2023-09-19T03:01:29;100712.53;;;16.04;82.37
38466;BME280;24244;51.950;5.902;2023-09-19T03:03:56;100718.34;;;16.01;82.25
38466;BME280;24244;51.950;5.902;2023-09-19T03:06:23;100724.16;;;15.98;82.17
38466;BME280;24244;51.950;5.902;2023-09-19T03:08:52;100720.88;;;15.96;82.23
38466;BME280;24244;51.950;5.902;2023-09-19T03:11:20;100725.84;;;15.92;81.98
38466;BME280;24244;51.950;5.902;2023-09-19T03:13:53;100727.13;;;15.90;81.94
38466;BME280;24244;51.950;5.902;2023-09-19T03:16:20;100727.56;;;15.87;81.82
38466;BME280;24244;51.950;5.902;2023-09-19T03:18:48;100723.47;;;15.84;81.81
38466;BME280;24244;51.950;5.902;2023-09-19T03:21:15;100729.06;;;15.83;81.72
38466;BME280;24244;51.950;5.902;2023-09-19T03:23:43;100723.91;;;15.81;81.75
38466;BME280;24244;51.950;5.902;2023-09-19T03:26:13;100724.13;;;15.80;81.54
38466;BME280;24244;51.950;5.902;2023-09-19T03:28:53;100733.44;;;15.77;81.50
38466;BME280;24244;51.950;5.902;2023-09-19T03:31:20;100719.44;;;15.75;81.42
38466;BME280;24244;51.950;5.902;2023-09-19T03:33:47;100719.88;;;15.72;81.11
38466;BME280;24244;51.950;5.902;2023-09-19T03:36:13;100713.31;;;15.68;81.01
38466;BME280;24244;51.950;5.902;2023-09-19T03:38:40;100711.91;;;15.65;81.20
38466;BME280;24244;51.950;5.902;2023-09-19T03:41:07;100709.88;;;15.61;80.68
38466;BME280;24244;51.950;5.902;2023-09-19T03:43:34;100716.06;;;15.61;80.72
38466;BME280;24244;51.950;5.902;2023-09-19T03:46:03;100715.69;;;15.58;80.66
38466;BME280;24244;51.950;5.902;2023-09-19T03:48:34;100723.13;;;15.56;80.56
38466;BME280;24244;51.950;5.902;2023-09-19T03:51:04;100724.38;;;15.53;80.48
38466;BME280;24244;51.950;5.902;2023-09-19T03:53:31;100719.19;;;15.52;80.42
38466;BME280;24244;51.950;5.902;2023-09-19T03:55:58;100723.94;;;15.50;80.18
38466;BME280;24244;51.950;5.902;2023-09-19T03:58:26;100719.63;;;15.49;80.15
38466;BME280;24244;51.950;5.902;2023-09-19T04:00:55;100724.19;;;15.48;79.95
38466;BME280;24244;51.950;5.902;2023-09-19T04:03:23;100709.16;;;15.47;79.98
38466;BME280;24244;51.950;5.902;2023-09-19T04:05:50;100712.25;;;15.44;79.79
38466;BME280;24244;51.950;5.902;2023-09-19T04:08:17;100712.25;;;15.44;79.83
38466;BME280;24244;51.950;5.902;2023-09-19T04:10:44;100705.25;;;15.43;79.78
38466;BME280;24244;51.950;5.902;2023-09-19T04:13:12;100716.19;;;15.42;79.72
38466;BME280;24244;51.950;5.902;2023-09-19T04:15:39;100712.94;;;15.40;79.76
38466;BME280;24244;51.950;5.902;2023-09-19T04:18:07;100717.47;;;15.39;79.58
38466;BME280;24244;51.950;5.902;2023-09-19T04:20:35;100730.66;;;15.41;79.52
38466;BME280;24244;51.950;5.902;2023-09-19T04:23:03;100741.34;;;15.41;79.36
38466;BME280;24244;51.950;5.902;2023-09-19T04:25:32;100743.44;;;15.39;79.32
38466;BME280;24244;51.950;5.902;2023-09-19T04:27:59;100740.13;;;15.37;79.11
38466;BME280;24244;51.950;5.902;2023-09-19T04:30:25;100761.78;;;15.35;79.03
38466;BME280;24244;51.950;5.902;2023-09-19T04:32:53;100771.09;;;15.33;79.16
38466;BME280;24244;51.950;5.902;2023-09-19T04:35:20;100765.13;;;15.31;79.03
38466;BME280;24244;51.950;5.902;2023-09-19T04:37:50;100774.19;;;15.29;79.19
38466;BME280;24244;51.950;5.902;2023-09-19T04:40:17;100774.63;;;15.26;78.88
38466;BME280;24244;51.950;5.902;2023-09-19T04:42:53;100776.25;;;15.27;78.76
38466;BME280;24244;51.950;5.902;2023-09-19T04:45:22;100776.25;;;15.27;78.54
38466;BME280;24244;51.950;5.902;2023-09-19T04:47:49;100781.59;;;15.27;78.37
38466;BME280;24244;51.950;5.902;2023-09-19T04:50:16;100785.09;;;15.28;78.24
38466;BME280;24244;51.950;5.902;2023-09-19T04:52:44;100788.84;;;15.27;78.06
38466;BME280;24244;51.950;5.902;2023-09-19T04:55:14;100793.78;;;15.23;78.20
38466;BME280;24244;51.950;5.902;2023-09-19T04:57:44;100786.78;;;15.22;78.03
38466;BME280;24244;51.950;5.902;2023-09-19T05:00:13;100786.78;;;15.22;77.95
38466;BME280;24244;51.950;5.902;2023-09-19T05:02:41;100799.34;;;15.22;78.00
38466;BME280;24244;51.950;5.902;2023-09-19T05:05:09;100796.69;;;15.22;78.07
38466;BME280;24244;51.950;5.902;2023-09-19T05:07:44;100803.91;;;15.21;78.21
38466;BME280;24244;51.950;5.902;2023-09-19T05:10:13;100792.97;;;15.23;78.12
38466;BME280;24244;51.950;5.902;2023-09-19T05:12:40;100791.31;;;15.22;78.16
38466;BME280;24244;51.950;5.902;2023-09-19T05:15:08;100792.34;;;15.21;78.00
38466;BME280;24244;51.950;5.902;2023-09-19T05:17:35;100787.81;;;15.21;77.99
38466;BME280;24244;51.950;5.902;2023-09-19T05:20:03;100791.31;;;15.22;78.06
38466;BME280;24244;51.950;5.902;2023-09-19T05:22:42;100792.34;;;15.21;78.05
38466;BME280;24244;51.950;5.902;2023-09-19T05:25:09;100793.19;;;15.21;77.88
38466;BME280;24244;51.950;5.902;2023-09-19T05:27:39;100792.34;;;15.21;77.72
38466;BME280;24244;51.950;5.902;2023-09-19T05:30:07;100798.53;;;15.21;77.89
38466;BME280;24244;51.950;5.902;2023-09-19T05:32:34;100790.50;;;15.21;77.96
38466;BME280;24244;51.950;5.902;2023-09-19T05:35:01;100792.34;;;15.21;78.20
38466;BME280;24244;51.950;5.902;2023-09-19T05:37:29;100788.66;;;15.22;77.92
38466;BME280;24244;51.950;5.902;2023-09-19T05:39:56;100789.25;;;15.24;78.08
38466;BME280;24244;51.950;5.902;2023-09-19T05:42:24;100806.16;;;15.24;78.19
38466;BME280;24244;51.950;5.902;2023-09-19T05:44:52;100799.75;;;15.25;77.95
38466;BME280;24244;51.950;5.902;2023-09-19T05:47:19;100794.41;;;15.25;78.08
38466;BME280;24244;51.950;5.902;2023-09-19T05:49:46;100799.75;;;15.25;77.93
38466;BME280;24244;51.950;5.902;2023-09-19T05:52:14;100803.28;;;15.26;77.91
38466;BME280;24244;51.950;5.902;2023-09-19T05:54:41;100806.97;;;15.25;77.96
38466;BME280;24244;51.950;5.902;2023-09-19T05:57:10;100789.88;;;15.26;78.24
38466;BME280;24244;51.950;5.902;2023-09-19T05:59:38;100786.16;;;15.27;78.29
38466;BME280;24244;51.950;5.902;2023-09-19T06:02:07;100791.53;;;15.27;78.28
38466;BME280;24244;51.950;5.902;2023-09-19T06:04:36;100795.59;;;15.29;78.43
38466;BME280;24244;51.950;5.902;2023-09-19T06:07:05;100803.63;;;15.29;78.23
38466;BME280;24244;51.950;5.902;2023-09-19T06:09:32;100805.28;;;15.31;78.42
38466;BME280;24244;51.950;5.902;2023-09-19T06:12:00;100801.56;;;15.32;78.35
38466;BME280;24244;51.950;5.902;2023-09-19T06:14:31;100805.06;;;15.32;78.37
38466;BME280;24244;51.950;5.902;2023-09-19T06:16:58;100802.19;;;15.34;78.60
38466;BME280;24244;51.950;5.902;2023-09-19T06:19:26;100814.53;;;15.35;78.52
38466;BME280;24244;51.950;5.902;2023-09-19T06:21:55;100813.47;;;15.36;78.73
38466;BME280;24244;51.950;5.902;2023-09-19T06:24:22;100820.69;;;15.35;78.65
38466;BME280;24244;51.950;5.902;2023-09-19T06:26:49;100811.63;;;15.36;78.86
38466;BME280;24244;51.950;5.902;2023-09-19T06:29:16;100818.63;;;15.37;78.49
38466;BME280;24244;51.950;5.902;2023-09-19T06:31:43;100813.06;;;15.39;78.61
38466;BME280;24244;51.950;5.902;2023-09-19T06:34:11;100820.91;;;15.40;78.62
38466;BME280;24244;51.950;5.902;2023-09-19T06:36:39;100822.28;;;15.43;78.86
38466;BME280;24244;51.950;5.902;2023-09-19T06:39:12;100837.34;;;15.44;78.85
38466;BME280;24244;51.950;5.902;2023-09-19T06:41:39;100833.63;;;15.45;78.94
38466;BME280;24244;51.950;5.902;2023-09-19T06:44:08;100837.13;;;15.45;78.86
38466;BME280;24244;51.950;5.902;2023-09-19T06:46:36;100842.06;;;15.48;79.10
38466;BME280;24244;51.950;5.902;2023-09-19T06:49:06;100833.78;;;15.50;79.28
38466;BME280;24244;51.950;5.902;2023-09-19T06:51:32;100827.41;;;15.51;78.96
38466;BME280;24244;51.950;5.902;2023-09-19T06:54:03;100828.03;;;15.53;79.18
38466;BME280;24244;51.950;5.902;2023-09-19T06:56:31;100827.84;;;15.54;79.27
38466;BME280;24244;51.950;5.902;2023-09-19T06:58:58;100817.13;;;15.54;79.51
38466;BME280;24244;51.950;5.902;2023-09-19T07:01:25;100822.25;;;15.56;79.31
38466;BME280;24244;51.950;5.902;2023-09-19T07:03:52;100821.00;;;15.58;79.35
38466;BME280;24244;51.950;5.902;2023-09-19T07:06:20;100824.28;;;15.60;79.36
38466;BME280;24244;51.950;5.902;2023-09-19T07:08:46;100825.72;;;15.63;79.54
38466;BME280;24244;51.950;5.902;2023-09-19T07:11:14;100828.16;;;15.64;79.46
38466;BME280;24244;51.950;5.902;2023-09-19T07:13:42;100829.81;;;15.65;79.52
38466;BME280;24244;51.950;5.902;2023-09-19T07:16:10;100829.59;;;15.67;79.54
38466;BME280;24244;51.950;5.902;2023-09-19T07:18:54;100842.78;;;15.69;79.46
38466;BME280;24244;51.950;5.902;2023-09-19T07:21:23;100832.06;;;15.69;79.89
38466;BME280;24244;51.950;5.902;2023-09-19T07:23:50;100840.69;;;15.71;79.71
38466;BME280;24244;51.950;5.902;2023-09-19T07:26:20;100842.31;;;15.72;79.98
38466;BME280;24244;51.950;5.902;2023-09-19T07:28:47;100834.91;;;15.74;79.96
38466;BME280;24244;51.950;5.902;2023-09-19T07:31:14;100837.38;;;15.75;79.88
38466;BME280;24244;51.950;5.902;2023-09-19T07:33:41;100839.59;;;15.78;79.89
38466;BME280;24244;51.950;5.902;2023-09-19T07:36:12;100838.13;;;15.82;79.75
38466;BME280;24244;51.950;5.902;2023-09-19T07:38:42;100831.50;;;15.85;79.76
38466;BME280;24244;51.950;5.902;2023-09-19T07:41:09;100844.69;;;15.86;79.83
38466;BME280;24244;51.950;5.902;2023-09-19T07:43:38;100845.28;;;15.88;79.91
38466;BME280;24244;51.950;5.902;2023-09-19T07:46:07;100851.28;;;15.90;79.88
38466;BME280;24244;51.950;5.902;2023-09-19T07:48:38;100856.19;;;15.93;79.81
38466;BME280;24244;51.950;5.902;2023-09-19T07:51:05;100849.56;;;15.96;79.85
38466;BME280;24244;51.950;5.902;2023-09-19T07:53:33;100859.25;;;15.97;79.75
38466;BME280;24244;51.950;5.902;2023-09-19T07:56:05;100861.47;;;16.00;79.88
38466;BME280;24244;51.950;5.902;2023-09-19T07:58:32;100869.91;;;16.03;79.72
38466;BME280;24244;51.950;5.902;2023-09-19T08:01:05;100861.88;;;16.03;79.87
38466;BME280;24244;51.950;5.902;2023-09-19T08:03:33;100844.50;;;16.06;79.64
38466;BME280;24244;51.950;5.902;2023-09-19T08:06:00;100863.88;;;16.08;79.58
38466;BME280;24244;51.950;5.902;2023-09-19T08:08:27;100858.94;;;16.12;79.85
38466;BME280;24244;51.950;5.902;2023-09-19T08:10:55;100860.31;;;16.14;79.65
38466;BME280;24244;51.950;5.902;2023-09-19T08:13:25;100855.34;;;16.18;79.65
38466;BME280;24244;51.950;5.902;2023-09-19T08:15:53;100858.66;;;16.20;79.61
38466;BME280;24244;51.950;5.902;2023-09-19T08:18:22;100869.75;;;16.23;79.70
38466;BME280;24244;51.950;5.902;2023-09-19T08:20:51;100859.41;;;16.27;79.69
38466;BME280;24244;51.950;5.902;2023-09-19T08:23:18;100861.63;;;16.30;79.73
38466;BME280;24244;51.950;5.902;2023-09-19T08:25:46;100859.56;;;16.32;79.54
38466;BME280;24244;51.950;5.902;2023-09-19T08:28:13;100867.16;;;16.35;79.44
38466;BME280;24244;51.950;5.902;2023-09-19T08:30:45;100868.34;;;16.39;79.64
38466;BME280;24244;51.950;5.902;2023-09-19T08:33:12;100864.19;;;16.43;79.62
38466;BME280;24244;51.950;5.902;2023-09-19T08:35:43;100870.97;;;16.45;79.56
38466;BME280;24244;51.950;5.902;2023-09-19T08:38:10;100861.22;;;16.51;79.55
38466;BME280;24244;51.950;5.902;2023-09-19T08:40:38;100866.16;;;16.54;79.46
38466;BME280;24244;51.950;5.902;2023-09-19T08:43:10;100860.09;;;16.59;79.34
38466;BME280;24244;51.950;5.902;2023-09-19T08:45:37;100857.84;;;16.62;79.21
38466;BME280;24244;51.950;5.902;2023-09-19T08:48:26;100854.47;;;16.67;79.27
38466;BME280;24244;51.950;5.902;2023-09-19T08:51:01;100860.19;;;16.70;79.32
38466;BME280;24244;51.950;5.902;2023-09-19T08:53:36;100862.44;;;16.73;79.28
38466;BME280;24244;51.950;5.902;2023-09-19T08:56:10;100862.81;;;16.77;79.30
38466;BME280;24244;51.950;5.902;2023-09-19T08:58:44;100866.69;;;16.81;79.25
38466;BME280;24244;51.950;5.902;2023-09-19T09:01:15;100853.63;;;16.84;79.19
38466;BME280;24244;51.950;5.902;2023-09-19T09:03:43;100854.84;;;16.89;79.02
38466;BME280;24244;51.950;5.902;2023-09-19T09:06:17;100852.50;;;16.92;79.02
38466;BME280;24244;51.950;5.902;2023-09-19T09:08:45;100853.72;;;16.96;78.83
38466;BME280;24244;51.950;5.902;2023-09-19T09:11:12;100856.75;;;17.00;78.82
38466;BME280;24244;51.950;5.902;2023-09-19T09:13:41;100851.75;;;17.03;78.77
38466;BME280;24244;51.950;5.902;2023-09-19T09:16:09;100848.38;;;17.08;78.69
38466;BME280;24244;51.950;5.902;2023-09-19T09:18:37;100855.75;;;17.12;78.44
38466;BME280;24244;51.950;5.902;2023-09-19T09:21:04;100842.94;;;17.14;78.35
38466;BME280;24244;51.950;5.902;2023-09-19T09:23:35;100847.03;;;17.17;78.24
38466;BME280;24244;51.950;5.902;2023-09-19T09:26:02;100841.19;;;17.20;78.02
38466;BME280;24244;51.950;5.902;2023-09-19T09:28:32;100840.31;;;17.26;78.05
38466;BME280;24244;51.950;5.902;2023-09-19T09:31:00;100848.50;;;17.31;78.04
38466;BME280;24244;51.950;5.902;2023-09-19T09:33:29;100839.50;;;17.37;77.73
38466;BME280;24244;51.950;5.902;2023-09-19T09:35:58;100846.66;;;17.43;77.57
38466;BME280;24244;51.950;5.902;2023-09-19T09:38:28;100835.81;;;17.50;77.54
38466;BME280;24244;51.950;5.902;2023-09-19T09:41:07;100842.72;;;17.57;77.18
38466;BME280;24244;51.950;5.902;2023-09-19T09:43:37;100844.28;;;17.65;77.16
38466;BME280;24244;51.950;5.902;2023-09-19T09:46:07;100834.47;;;17.71;77.13
38466;BME280;24244;51.950;5.902;2023-09-19T09:49:01;100835.66;;;17.75;76.75
38466;BME280;24244;51.950;5.902;2023-09-19T09:52:01;100837.44;;;17.81;76.34
38466;BME280;24244;51.950;5.902;2023-09-19T09:54:37;100845.03;;;17.84;76.08
38466;BME280;24244;51.950;5.902;2023-09-19T09:57:11;100836.50;;;17.87;75.83
38466;BME280;24244;51.950;5.902;2023-09-19T09:59:49;100836.03;;;17.90;75.76
38466;BME280;24244;51.950;5.902;2023-09-19T10:02:18;100838.25;;;17.93;75.35
38466;BME280;24244;51.950;5.902;2023-09-19T10:04:54;100841.31;;;17.96;75.37
38466;BME280;24244;51.950;5.902;2023-09-19T10:07:41;100829.03;;;18.00;74.99
38466;BME280;24244;51.950;5.902;2023-09-19T10:10:31;100826.09;;;18.02;74.90
38466;BME280;24244;51.950;5.902;2023-09-19T10:13:25;100821.88;;;18.06;74.79
38466;BME280;24244;51.950;5.902;2023-09-19T10:15:54;100818.97;;;18.08;74.83
38466;BME280;24244;51.950;5.902;2023-09-19T10:18:24;100822.81;;;18.12;74.82
38466;BME280;24244;51.950;5.902;2023-09-19T10:20:52;100813.47;;;18.14;74.19
38466;BME280;24244;51.950;5.902;2023-09-19T10:23:19;100824.81;;;18.16;74.75
38466;BME280;24244;51.950;5.902;2023-09-19T10:25:52;100820.38;;;18.22;74.38
38466;BME280;24244;51.950;5.902;2023-09-19T10:28:22;100815.91;;;18.27;74.37
38466;BME280;24244;51.950;5.902;2023-09-19T10:30:51;100806.56;;;18.30;74.13
38466;BME280;24244;51.950;5.902;2023-09-19T10:33:20;100812.03;;;18.35;74.21
38466;BME280;24244;51.950;5.902;2023-09-19T10:35:49;100820.00;;;18.42;74.14
38466;BME280;24244;51.950;5.902;2023-09-19T10:38:23;100839.19;;;18.45;73.83
38466;BME280;24244;51.950;5.902;2023-09-19T10:40:51;100822.00;;;18.46;73.56
38466;BME280;24244;51.950;5.902;2023-09-19T10:43:20;100821.28;;;18.51;73.56
38466;BME280;24244;51.950;5.902;2023-09-19T10:45:50;100816.03;;;18.56;73.43
38466;BME280;24244;51.950;5.902;2023-09-19T10:48:19;100818.25;;;18.59;73.03
38466;BME280;24244;51.950;5.902;2023-09-19T10:50:50;100811.81;;;18.60;72.97
38466;BME280;24244;51.950;5.902;2023-09-19T10:53:18;100815.88;;;18.62;73.10
38466;BME280;24244;51.950;5.902;2023-09-19T10:55:53;100808.06;;;18.61;72.68
38466;BME280;24244;51.950;5.902;2023-09-19T10:58:27;100810.75;;;18.61;72.94
38466;BME280;24244;51.950;5.902;2023-09-19T11:00:58;100809.94;;;18.60;72.88
38466;BME280;24244;51.950;5.902;2023-09-19T11:03:37;100821.78;;;18.59;72.82
38466;BME280;24244;51.950;5.902;2023-09-19T11:06:12;100805.84;;;18.58;72.79
38466;BME280;24244;51.950;5.902;2023-09-19T11:08:54;100787.22;;;18.56;72.38
38466;BME280;24244;51.950;5.902;2023-09-19T11:11:44;100791.56;;;18.57;72.60
38466;BME280;24244;51.950;5.902;2023-09-19T11:14:39;100786.19;;;18.57;72.63
38466;BME280;24244;51.950;5.902;2023-09-19T11:17:41;100771.91;;;18.57;72.51
38466;BME280;24244;51.950;5.902;2023-09-19T11:20:22;100767.34;;;18.57;72.33
38466;BME280;24244;51.950;5.902;2023-09-19T11:23:22;100760.66;;;18.60;72.35
38466;BME280;24244;51.950;5.902;2023-09-19T11:25:50;100763.13;;;18.61;71.99
38466;BME280;24244;51.950;5.902;2023-09-19T11:28:32;100766.72;;;18.67;72.37
38466;BME280;24244;51.950;5.902;2023-09-19T11:31:41;100770.34;;;18.72;72.00
38466;BME280;24244;51.950;5.902;2023-09-19T11:34:40;100752.88;;;18.75;71.67
38466;BME280;24244;51.950;5.902;2023-09-19T11:40:27;100752.97;;;18.80;71.76
38466;BME280;24244;51.950;5.902;2023-09-19T11:42:54;100757.31;;;18.81;71.47
38466;BME280;24244;51.950;5.902;2023-09-19T11:48:32;100756.50;;;18.81;71.04
38466;BME280;24244;51.950;5.902;2023-09-19T11:51:01;100747.91;;;18.84;70.69
38466;BME280;24244;51.950;5.902;2023-09-19T11:53:34;100753.41;;;18.89;70.60
38466;BME280;24244;51.950;5.902;2023-09-19T11:56:05;100759.34;;;18.91;70.03
38466;BME280;24244;51.950;5.902;2023-09-19T11:58:34;100754.56;;;18.93;70.13
38466;BME280;24244;51.950;5.902;2023-09-19T12:01:05;100751.41;;;18.96;69.73
38466;BME280;24244;51.950;5.902;2023-09-19T12:03:38;100750.66;;;19.00;69.74
38466;BME280;24244;51.950;5.902;2023-09-19T12:06:14;100755.31;;;19.05;69.81
38466;BME280;24244;51.950;5.902;2023-09-19T12:08:42;100748.41;;;19.09;69.24
38466;BME280;24244;51.950;5.902;2023-09-19T12:11:13;100744.97;;;19.13;69.25
38466;BME280;24244;51.950;5.902;2023-09-19T12:13:44;100736.97;;;19.18;69.33
38466;BME280;24244;51.950;5.902;2023-09-19T12:16:13;100733.78;;;19.22;69.22
38466;BME280;24244;51.950;5.902;2023-09-19T12:18:42;100731.69;;;19.24;69.17
38466;BME280;24244;51.950;5.902;2023-09-19T12:21:28;100727.66;;;19.26;69.23
38466;BME280;24244;51.950;5.902;2023-09-19T12:24:07;100720.16;;;19.28;68.68
38466;BME280;24244;51.950;5.902;2023-09-19T12:26:42;100730.47;;;19.31;68.23
38466;BME280;24244;51.950;5.902;2023-09-19T12:29:18;100733.22;;;19.36;67.95
38466;BME280;24244;51.950;5.902;2023-09-19T12:31:52;100734.94;;;19.42;67.89
38466;BME280;24244;51.950;5.902;2023-09-19T12:34:25;100744.44;;;19.45;67.42
38466;BME280;24244;51.950;5.902;2023-09-19T12:37:07;100743.13;;;19.47;67.38
38466;BME280;24244;51.950;5.902;2023-09-19T12:39:51;100736.44;;;19.50;67.49
38466;BME280;24244;51.950;5.902;2023-09-19T12:42:23;100738.66;;;19.53;67.24
38466;BME280;24244;51.950;5.902;2023-09-19T12:44:51;100741.38;;;19.53;67.51
38466;BME280;24244;51.950;5.902;2023-09-19T12:47:28;100736.53;;;19.55;67.60
38466;BME280;24244;51.950;5.902;2023-09-19T12:50:09;100736.53;;;19.55;67.56
38466;BME280;24244;51.950;5.902;2023-09-19T12:52:44;100736.53;;;19.55;67.58
38466;BME280;24244;51.950;5.902;2023-09-19T12:55:21;100733.59;;;19.57;67.64
38466;BME280;24244;51.950;5.902;2023-09-19T12:57:59;100736.78;;;19.53;67.59
38466;BME280;24244;51.950;5.902;2023-09-19T13:00:32;100728.94;;;19.52;67.51
38466;BME280;24244;51.950;5.902;2023-09-19T13:03:18;100741.59;;;19.51;67.47
38466;BME280;24244;51.950;5.902;2023-09-19T13:05:50;100733.75;;;19.50;67.67
38466;BME280;24244;51.950;5.902;2023-09-19T13:08:21;100736.69;;;19.48;67.78
38466;BME280;24244;51.950;5.902;2023-09-19T13:13:41;100728.84;;;19.47;67.64
38466;BME280;24244;51.950;5.902;2023-09-19T13:16:11;100731.28;;;19.48;67.65
38466;BME280;24244;51.950;5.902;2023-09-19T13:18:42;100734.56;;;19.50;67.80